Time;durP1;ratioP1;P1;durP2;ratioP2;P2;SDS_P1;SDS_P2;PMS_P1;PMS_P2;Temp;Humidity;BMP_temperature;BMP_pressure;BME280_temperature;BME280_humidity;BME280_pressure;Samples;Min_cycle;Max_cycle;Signal;HPM_P1;HPM_P2
2023/05/15 00:01:18;;;;;;;24.63;20.90;;;;;;;13.72;100.00;148527.53;5052117;28;20208;-54
2023/05/15 00:03:45;;;;;;;23.57;19.77;;;;;;;13.72;100.00;148528.78;5052637;28;20201;-54
2023/05/15 00:06:12;;;;;;;22.83;20.43;;;;;;;13.73;100.00;148531.31;5052141;28;20668;-54
2023/05/15 00:08:39;;;;;;;25.53;20.20;;;;;;;13.78;100.00;148543.88;5052415;28;20256;-54
2023/05/15 00:11:08;;;;;;;22.80;20.40;;;;;;;13.75;100.00;148536.38;5052453;28;20616;-55
2023/05/15 00:13:37;;;;;;;25.90;19.73;;;;;;;13.77;100.00;148540.09;5051581;28;20200;-52
2023/05/15 00:16:04;;;;;;;22.17;19.83;;;;;;;13.68;100.00;148518.69;5051586;28;20196;-51
2023/05/15 00:18:32;;;;;;;22.60;20.23;;;;;;;13.65;100.00;148511.16;5051716;28;20672;-52
2023/05/15 00:20:59;;;;;;;22.53;19.70;;;;;;;13.63;100.00;148504.84;5051574;28;20201;-53
2023/05/15 00:23:26;;;;;;;27.57;21.13;;;;;;;13.64;100.00;148507.38;5051604;28;20192;-53
2023/05/15 00:25:53;;;;;;;25.73;20.07;;;;;;;13.63;100.00;148504.84;5051466;28;20200;-53
2023/05/15 00:28:21;;;;;;;23.13;19.87;;;;;;;13.59;100.00;148496.00;5051226;28;20227;-53
2023/05/15 00:30:48;;;;;;;25.90;19.93;;;;;;;13.52;100.00;148478.38;5050987;28;20201;-54
2023/05/15 00:33:15;;;;;;;26.90;20.80;;;;;;;13.38;100.00;148444.34;5050619;28;20193;-53
2023/05/15 00:35:42;;;;;;;26.47;20.87;;;;;;;13.32;100.00;148427.94;5050444;28;20212;-52
2023/05/15 00:38:09;;;;;;;27.70;20.57;;;;;;;13.21;100.00;148401.47;5050817;28;20201;-52
2023/05/15 00:40:37;;;;;;;26.63;20.67;;;;;;;13.13;100.00;148380.03;5050937;28;20203;-52
2023/05/15 00:43:05;;;;;;;27.90;21.43;;;;;;;13.14;100.00;148383.84;5051247;28;20207;-51
2023/05/15 00:45:34;;;;;;;33.80;22.67;;;;;;;13.18;100.00;148393.94;5051234;28;20211;-51
2023/05/15 00:48:02;;;;;;;29.70;21.67;;;;;;;13.04;100.00;148358.63;5051127;28;20224;-52
2023/05/15 00:50:31;;;;;;;31.87;22.17;;;;;;;13.13;100.00;148381.28;5050983;28;20573;-54
2023/05/15 00:52:59;;;;;;;30.13;22.73;;;;;;;13.17;100.00;148390.16;5051056;28;20202;-51
2023/05/15 00:55:27;;;;;;;30.00;22.43;;;;;;;13.19;100.00;148396.47;5051285;28;20577;-52
2023/05/15 00:57:55;;;;;;;29.80;22.97;;;;;;;13.24;100.00;148407.78;5050631;28;20299;-54
2023/05/15 01:00:22;;;;;;;27.43;21.97;;;;;;;13.22;100.00;148402.75;5050502;28;20593;-53
2023/05/15 01:02:50;;;;;;;26.83;21.70;;;;;;;13.20;100.00;148397.75;5050798;28;20197;-53
2023/05/15 01:05:17;;;;;;;29.33;23.10;;;;;;;13.13;100.00;148381.28;5050693;28;20584;-54
2023/05/15 01:07:52;;;;;;;30.47;22.93;;;;;;;13.08;100.00;148369.97;5050749;28;20220;-53
2023/05/15 01:10:21;;;;;;;31.70;22.87;;;;;;;13.10;100.00;148374.97;5050766;28;20226;-52
2023/05/15 01:12:54;;;;;;;26.53;22.23;;;;;;;13.10;100.00;148373.72;5051132;28;20243;-53
2023/05/15 01:15:20;;;;;;;32.93;23.47;;;;;;;13.06;100.00;148364.94;5050462;28;20204;-53
2023/05/15 01:17:47;;;;;;;31.17;24.10;;;;;;;13.08;100.00;148368.72;5050312;28;20676;-53
2023/05/15 01:20:19;;;;;;;30.10;23.30;;;;;;;13.05;100.00;148362.41;5050639;28;20219;-53
2023/05/15 01:23:10;;;;;;;29.37;22.83;;;;;;;13.07;100.00;148367.44;5050606;28;20211;-52
2023/05/15 01:26:18;;;;;;;36.60;24.50;;;;;;;13.18;100.00;148392.69;5050444;28;20254;-52
2023/05/15 01:28:51;;;;;;;31.37;24.07;;;;;;;13.21;100.00;148401.47;5050779;28;20342;-53
2023/05/15 01:31:22;;;;;;;28.50;23.60;;;;;;;13.27;100.00;148416.63;5050559;28;20211;-52
2023/05/15 01:33:54;;;;;;;28.37;22.13;;;;;;;13.26;100.00;148414.09;5049994;28;20212;-52
2023/05/15 01:36:26;;;;;;;27.03;22.50;;;;;;;13.25;100.00;148410.31;5049931;28;20196;-53
2023/05/15 01:38:56;;;;;;;29.13;23.87;;;;;;;13.25;100.00;148410.31;5050292;28;20204;-53
2023/05/15 01:41:28;;;;;;;26.63;22.87;;;;;;;13.28;100.00;148419.16;5049643;28;20665;-53
2023/05/15 01:44:02;;;;;;;27.63;23.00;;;;;;;13.32;100.00;148427.94;5049597;28;20695;-54
2023/05/15 01:46:31;;;;;;;29.17;23.73;;;;;;;13.23;100.00;148405.25;5049298;28;20290;-54
2023/05/15 01:49:01;;;;;;;28.50;24.87;;;;;;;13.12;100.00;148378.75;5049409;28;20236;-54
2023/05/15 01:51:28;;;;;;;28.73;24.47;;;;;;;13.14;100.00;148382.53;5050371;28;20197;-54
2023/05/15 01:53:58;;;;;;;29.00;24.43;;;;;;;13.15;100.00;148385.13;5050405;28;20215;-53
2023/05/15 01:56:26;;;;;;;34.00;24.23;;;;;;;13.20;100.00;148397.75;5050384;28;20275;-52
2023/05/15 01:58:55;;;;;;;32.43;24.23;;;;;;;13.25;100.00;148411.56;5049791;28;20229;-53
2023/05/15 02:01:24;;;;;;;27.03;24.07;;;;;;;13.23;100.00;148405.25;5049874;28;20239;-54
2023/05/15 02:03:52;;;;;;;26.17;22.53;;;;;;;13.17;100.00;148391.44;5050296;28;20695;-52
2023/05/15 02:06:21;;;;;;;25.27;22.63;;;;;;;13.14;100.00;148382.53;5049925;28;20197;-53
2023/05/15 02:08:48;;;;;;;25.13;22.10;;;;;;;13.08;100.00;148369.97;5049983;28;20267;-53
2023/05/15 02:11:15;;;;;;;30.97;23.43;;;;;;;12.97;100.00;148342.25;5049347;28;20283;-53
2023/05/15 02:13:43;;;;;;;28.97;23.40;;;;;;;12.97;100.00;148342.25;5049503;28;20205;-54
2023/05/15 02:16:10;;;;;;;33.13;23.87;;;;;;;12.93;100.00;148332.16;5048950;28;20204;-51
2023/05/15 02:18:38;;;;;;;29.10;23.50;;;;;;;12.84;100.00;148309.50;5049227;28;20220;-54
2023/05/15 02:21:05;;;;;;;30.00;24.07;;;;;;;12.82;100.00;148303.19;5049353;28;20616;-54
2023/05/15 02:23:32;;;;;;;28.83;24.37;;;;;;;12.78;100.00;148294.34;5049810;28;20200;-53
2023/05/15 02:26:13;;;;;;;26.93;24.13;;;;;;;12.80;100.00;148298.16;5049866;28;20204;-53
2023/05/15 02:28:50;;;;;;;29.23;23.90;;;;;;;12.84;100.00;148309.50;5049632;28;20216;-52
2023/05/15 02:31:23;;;;;;;29.13;24.40;;;;;;;12.87;100.00;148315.75;5049760;28;20207;-54
2023/05/15 02:33:59;;;;;;;26.23;23.43;;;;;;;12.90;100.00;148324.59;5049633;28;20200;-54
2023/05/15 02:36:32;;;;;;;28.23;23.93;;;;;;;12.89;100.00;148320.81;5049804;28;20211;-51
2023/05/15 02:38:59;;;;;;;28.30;23.33;;;;;;;12.97;100.00;148342.25;5050169;28;20211;-52
2023/05/15 02:41:27;;;;;;;27.70;23.10;;;;;;;12.97;100.00;148341.00;5049624;28;20207;-51
2023/05/15 02:43:56;;;;;;;28.63;23.40;;;;;;;12.73;100.00;148281.78;5049648;28;20204;-52
2023/05/15 02:46:24;;;;;;;29.57;23.60;;;;;;;12.87;100.00;148317.03;5049410;28;20197;-52
2023/05/15 02:48:53;;;;;;;29.27;24.20;;;;;;;12.89;100.00;148322.06;5049378;28;20230;-52
2023/05/15 02:51:20;;;;;;;36.17;24.93;;;;;;;12.96;100.00;148338.47;5048973;28;20192;-54
2023/05/15 02:53:49;;;;;;;27.17;23.10;;;;;;;12.99;100.00;148347.25;5049052;28;20575;-53
2023/05/15 02:56:15;;;;;;;27.40;22.87;;;;;;;13.02;100.00;148354.84;5048877;28;20199;-54
2023/05/15 02:58:43;;;;;;;29.17;23.27;;;;;;;13.08;100.00;148368.72;5048429;28;20233;-55
2023/05/15 03:01:09;;;;;;;25.90;23.03;;;;;;;12.98;100.00;148344.72;5048336;28;20200;-53
2023/05/15 03:03:36;;;;;;;25.97;22.67;;;;;;;12.95;100.00;148335.94;5049335;28;20196;-53
2023/05/15 03:06:05;;;;;;;27.47;23.53;;;;;;;13.00;100.00;148348.53;5049189;28;20204;-54
2023/05/15 03:08:32;;;;;;;33.07;23.87;;;;;;;13.04;100.00;148359.88;5049526;28;20231;-53
2023/05/15 03:10:59;;;;;;;31.13;24.50;;;;;;;13.04;100.00;148358.63;5048988;28;20695;-53
2023/05/15 03:13:25;;;;;;;26.97;23.70;;;;;;;13.07;100.00;148366.19;5048675;28;20615;-53
2023/05/15 03:15:53;;;;;;;29.47;24.60;;;;;;;13.04;100.00;148358.63;5048521;28;20594;-53
2023/05/15 03:18:19;;;;;;;29.00;22.43;;;;;;;13.12;100.00;148377.50;5048325;28;20203;-54
2023/05/15 03:20:48;;;;;;;27.83;23.30;;;;;;;13.18;100.00;148393.94;5048827;28;20563;-54
2023/05/15 03:23:16;;;;;;;30.73;24.70;;;;;;;13.15;100.00;148386.38;5051749;28;20200;-53
2023/05/15 03:25:43;;;;;;;28.27;24.23;;;;;;;13.20;100.00;148399.00;5052791;28;20295;-53
2023/05/15 03:28:10;;;;;;;27.77;24.47;;;;;;;13.21;100.00;148401.47;5052591;28;20221;-53
2023/05/15 03:30:37;;;;;;;30.47;24.57;;;;;;;13.22;100.00;148402.75;5052774;28;20208;-54
2023/05/15 03:33:04;;;;;;;27.77;24.57;;;;;;;13.14;100.00;148382.53;5052242;28;20609;-53
2023/05/15 03:35:32;;;;;;;32.03;24.63;;;;;;;13.18;100.00;148393.94;5052596;28;20683;-54
2023/05/15 03:37:59;;;;;;;33.90;25.50;;;;;;;13.21;100.00;148400.22;5052116;28;20207;-53
2023/05/15 03:40:27;;;;;;;32.67;25.73;;;;;;;13.22;100.00;148402.75;5052296;28;20203;-52
2023/05/15 03:42:54;;;;;;;34.40;26.00;;;;;;;13.17;100.00;148391.44;5052508;28;20203;-53
2023/05/15 03:45:21;;;;;;;37.23;26.50;;;;;;;13.19;100.00;148396.47;5052450;28;20197;-54
2023/05/15 03:47:48;;;;;;;35.47;27.47;;;;;;;13.18;100.00;148392.69;5052462;28;20225;-52
2023/05/15 03:50:15;;;;;;;32.13;26.83;;;;;;;13.19;100.00;148396.47;5052348;28;20196;-53
2023/05/15 03:52:42;;;;;;;31.67;26.93;;;;;;;13.29;100.00;148421.66;5052637;28;20725;-53
2023/05/15 03:55:09;;;;;;;34.50;25.83;;;;;;;13.35;100.00;148435.50;5052324;28;20201;-54
2023/05/15 03:57:40;;;;;;;33.67;25.93;;;;;;;13.42;100.00;148454.44;5052152;28;20619;-53
2023/05/15 04:00:10;;;;;;;38.97;25.27;;;;;;;13.52;100.00;148477.13;5051957;28;20246;-53
2023/05/15 04:02:37;;;;;;;26.97;24.07;;;;;;;13.63;100.00;148504.84;5052509;28;20669;-52
2023/05/15 04:05:04;;;;;;;48.13;34.87;;;;;;;13.74;100.00;148533.84;5052238;28;20197;-51
2023/05/15 04:07:33;;;;;;;42.10;30.70;;;;;;;13.74;100.00;148533.84;5052222;28;20258;-53
2023/05/15 04:10:00;;;;;;;30.57;25.40;;;;;;;13.74;100.00;148533.84;5052277;28;20203;-52
2023/05/15 04:12:28;;;;;;;32.80;24.83;;;;;;;13.60;100.00;148498.53;5052081;28;20200;-53
2023/05/15 04:14:59;;;;;;;31.87;25.43;;;;;;;13.70;100.00;148523.75;5052155;28;20291;-53
2023/05/15 04:17:26;;;;;;;31.93;24.70;;;;;;;13.82;100.00;148554.00;5051819;28;20193;-52
2023/05/15 04:19:53;;;;;;;28.33;24.33;;;;;;;14.13;100.00;148630.88;5050803;28;20203;-53
2023/05/15 04:22:20;;;;;;;28.40;23.23;;;;;;;14.48;100.00;148717.94;5050904;28;20209;-51
2023/05/15 04:24:46;;;;;;;30.07;22.57;;;;;;;15.19;100.00;148894.56;5050719;28;20210;-52
2023/05/15 04:27:13;;;;;;;26.87;22.23;;;;;;;15.97;100.00;149089.00;5051559;28;20668;-52
2023/05/15 04:29:40;;;;;;;25.77;20.40;;;;;;;16.54;100.00;149230.44;5051729;28;20700;-52
2023/05/15 04:32:08;;;;;;;21.73;19.37;;;;;;;16.64;100.00;149254.47;5051568;28;20287;-54
2023/05/15 04:34:35;;;;;;;26.90;19.97;;;;;;;16.29;100.00;149168.53;5051738;28;20292;-53
2023/05/15 04:37:02;;;;;;;21.60;19.03;;;;;;;15.94;100.00;149081.41;5051775;28;20197;-54
2023/05/15 04:39:29;;;;;;;23.03;19.03;;;;;;;15.74;100.00;149029.66;5051613;28;20654;-54
2023/05/15 04:41:56;;;;;;;20.93;18.67;;;;;;;15.71;100.00;149022.06;5051432;28;20220;-53
2023/05/15 04:44:23;;;;;;;25.20;19.87;;;;;;;15.69;100.00;149017.06;5051439;28;20211;-54
2023/05/15 04:46:50;;;;;;;21.70;18.80;;;;;;;15.65;100.00;149006.94;5051535;28;20609;-53
2023/05/15 04:49:18;;;;;;;21.10;18.43;;;;;;;15.57;100.00;148989.28;5051240;28;20217;-53
2023/05/15 04:51:45;;;;;;;25.53;19.73;;;;;;;15.41;100.00;148947.56;5051607;28;20710;-52
2023/05/15 04:54:12;;;;;;;23.10;19.37;;;;;;;15.31;100.00;148922.31;5051077;28;20215;-52
2023/05/15 04:56:39;;;;;;;26.43;19.40;;;;;;;15.32;100.00;148924.84;5051320;28;20197;-53
2023/05/15 04:59:06;;;;;;;24.50;19.60;;;;;;;15.31;100.00;148922.31;5051081;28;20233;-54
2023/05/15 05:01:33;;;;;;;21.30;19.00;;;;;;;15.33;100.00;148928.66;5051505;28;20199;-54
2023/05/15 05:03:59;;;;;;;22.17;19.83;;;;;;;15.25;100.00;148909.69;5051008;28;20207;-53
2023/05/15 05:06:28;;;;;;;23.13;19.83;;;;;;;15.16;100.00;148886.97;5051059;28;20650;-52
2023/05/15 05:08:55;;;;;;;27.40;22.37;;;;;;;15.03;100.00;148854.16;5050658;28;20787;-52
2023/05/15 05:11:22;;;;;;;27.20;21.03;;;;;;;15.16;100.00;148885.72;5050884;28;20201;-53
2023/05/15 05:13:49;;;;;;;27.30;21.97;;;;;;;15.16;100.00;148886.97;5050607;28;20197;-53
2023/05/15 05:16:16;;;;;;;27.50;22.40;;;;;;;15.12;100.00;148875.66;5050689;28;20228;-52
2023/05/15 05:18:43;;;;;;;26.10;22.47;;;;;;;15.14;100.00;148881.94;5050785;28;20211;-53
2023/05/15 05:21:10;;;;;;;28.17;23.23;;;;;;;15.10;100.00;148871.88;5050717;28;20287;-54
2023/05/15 05:23:38;;;;;;;30.93;25.13;;;;;;;15.16;100.00;148885.72;5050746;28;20203;-53
2023/05/15 05:26:05;;;;;;;28.93;24.67;;;;;;;15.11;100.00;148873.13;5050790;28;20201;-53
2023/05/15 05:28:32;;;;;;;30.53;24.63;;;;;;;15.20;100.00;148897.09;5050643;28;20227;-52
2023/05/15 05:31:01;;;;;;;27.63;24.63;;;;;;;15.32;100.00;148926.13;5050436;28;20207;-52
2023/05/15 05:33:28;;;;;;;31.70;26.03;;;;;;;15.43;100.00;148952.63;5050577;28;20204;-53
2023/05/15 05:35:55;;;;;;;30.53;25.27;;;;;;;15.38;100.00;148939.97;5050277;28;20200;-54
2023/05/15 05:38:21;;;;;;;33.43;25.70;;;;;;;15.48;100.00;148966.47;5049823;28;20201;-54
2023/05/15 05:40:50;;;;;;;31.83;26.17;;;;;;;15.41;100.00;148947.56;5050256;28;20200;-54
2023/05/15 05:43:17;;;;;;;36.97;27.57;;;;;;;15.48;100.00;148965.22;5050419;28;20200;-54
2023/05/15 05:45:44;;;;;;;34.93;26.53;;;;;;;15.62;100.00;149000.63;5050133;28;20231;-53
2023/05/15 05:48:12;;;;;;;39.57;27.60;;;;;;;15.61;100.00;148998.09;5050203;28;20231;-54
2023/05/15 05:50:39;;;;;;;35.77;26.63;;;;;;;15.70;100.00;149020.81;5050091;28;20566;-54
2023/05/15 05:53:06;;;;;;;32.03;27.37;;;;;;;15.73;100.00;149028.38;5050362;28;20200;-54
2023/05/15 05:55:33;;;;;;;30.57;26.30;;;;;;;15.85;100.00;149058.69;5050224;28;20196;-55
2023/05/15 05:58:01;;;;;;;34.67;27.63;;;;;;;15.84;100.00;149054.91;5049853;28;20229;-55
2023/05/15 06:00:28;;;;;;;38.23;28.50;;;;;;;15.74;100.00;149029.66;5049966;28;20200;-54
2023/05/15 06:02:57;;;;;;;34.87;28.30;;;;;;;15.64;100.00;149005.69;5038282;28;20217;-53
2023/05/15 06:05:24;;;;;;;36.13;28.83;;;;;;;15.60;100.00;148995.56;5029363;28;20312;-52
2023/05/15 06:07:51;;;;;;;42.00;29.67;;;;;;;15.67;100.00;149013.25;5029590;28;20669;-54
2023/05/15 06:10:18;;;;;;;36.10;25.67;;;;;;;15.80;100.00;149046.03;5028871;28;20237;-52
2023/05/15 06:12:45;;;;;;;26.87;24.03;;;;;;;15.88;100.00;149066.28;5029724;28;20225;-55
2023/05/15 06:15:14;;;;;;;34.43;23.77;;;;;;;15.83;100.00;149053.63;5029771;28;20239;-53
2023/05/15 06:17:41;;;;;;;32.17;22.77;;;;;;;16.00;100.00;149095.31;5030133;28;20229;-54
2023/05/15 06:20:09;;;;;;;27.97;24.47;;;;;;;15.96;100.00;149086.47;5029538;28;20222;-54
2023/05/15 06:22:37;;;;;;;30.07;24.00;;;;;;;15.88;100.00;149066.28;5029656;28;20229;-53
2023/05/15 06:25:06;;;;;;;31.37;23.90;;;;;;;15.87;100.00;149063.75;5029003;28;20224;-53
2023/05/15 06:27:33;;;;;;;25.27;22.47;;;;;;;16.06;100.00;149109.19;5033410;28;20228;-54
2023/05/15 06:29:59;;;;;;;26.77;22.87;;;;;;;16.11;100.00;149123.09;5049065;28;20239;-53
2023/05/15 06:32:29;;;;;;;27.10;23.93;;;;;;;16.18;100.00;149139.50;5049420;28;20231;-55
2023/05/15 06:34:56;;;;;;;30.17;24.33;;;;;;;16.09;100.00;149116.78;5049511;28;20220;-55
2023/05/15 06:37:23;;;;;;;29.87;25.53;;;;;;;16.02;100.00;149099.09;5048964;28;20232;-54
2023/05/15 06:39:50;;;;;;;30.87;26.23;;;;;;;15.94;100.00;149080.16;5046847;28;20216;-54
2023/05/15 06:42:17;;;;;;;26.27;23.37;;;;;;;15.95;100.00;149083.94;5049290;28;20285;-54
2023/05/15 06:44:44;;;;;;;27.50;23.97;;;;;;;16.06;100.00;149109.19;5047352;28;20207;-53
2023/05/15 06:47:11;;;;;;;25.00;21.20;;;;;;;16.07;100.00;149111.72;5049509;28;20197;-54
2023/05/15 06:49:39;;;;;;;31.03;22.27;;;;;;;16.13;100.00;149126.88;5049600;28;20220;-54
2023/05/15 06:52:07;;;;;;;34.07;21.70;;;;;;;16.19;100.00;149143.28;5049658;28;20254;-55
2023/05/15 06:54:33;;;;;;;21.77;18.70;;;;;;;16.08;100.00;149114.25;5049695;28;20582;-55
2023/05/15 06:57:00;;;;;;;19.57;17.43;;;;;;;15.98;100.00;149091.53;5050048;28;20192;-53
2023/05/15 06:59:27;;;;;;;25.87;18.00;;;;;;;15.86;100.00;149059.94;5053207;28;20231;-54
2023/05/15 07:01:55;;;;;;;20.87;16.83;;;;;;;15.86;100.00;149061.22;5049468;28;20220;-54
2023/05/15 07:04:21;;;;;;;19.47;17.30;;;;;;;15.77;100.00;149037.25;5032732;28;20294;-54
2023/05/15 07:06:50;;;;;;;26.07;19.60;;;;;;;15.81;100.00;149048.56;5033095;28;20611;-53
2023/05/15 07:09:17;;;;;;;19.67;17.67;;;;;;;15.95;100.00;149082.66;5033088;28;20233;-54
2023/05/15 07:11:44;;;;;;;18.87;16.83;;;;;;;16.01;100.00;149096.59;5032956;28;20223;-53
2023/05/15 07:14:11;;;;;;;19.33;16.20;;;;;;;16.09;100.00;149116.78;5033099;28;20240;-54
2023/05/15 07:16:37;;;;;;;23.23;18.20;;;;;;;16.20;100.00;149145.81;5032740;28;20251;-54
2023/05/15 07:19:04;;;;;;;19.50;16.93;;;;;;;16.28;100.00;149164.75;5032395;28;20655;-54
2023/05/15 07:21:31;;;;;;;16.00;14.40;;;;;;;16.25;100.00;149157.19;5032894;28;20331;-53
2023/05/15 07:23:59;;;;;;;22.03;16.53;;;;;;;16.12;100.00;149124.34;5051616;28;20228;-52
2023/05/15 07:26:26;;;;;;;16.17;14.47;;;;;;;16.16;100.00;149134.44;5052720;28;20196;-54
2023/05/15 07:28:53;;;;;;;16.37;14.73;;;;;;;16.06;100.00;149110.44;5052755;28;20240;-54
2023/05/15 07:31:21;;;;;;;16.73;14.70;;;;;;;16.04;100.00;149105.38;5053124;28;20259;-54
2023/05/15 07:33:48;;;;;;;17.90;14.37;;;;;;;16.10;100.00;149120.56;5053250;28;20284;-54
2023/05/15 07:36:14;;;;;;;18.40;15.50;;;;;;;16.16;100.00;149134.44;5052896;28;20196;-55
2023/05/15 07:38:41;;;;;;;17.97;16.17;;;;;;;16.29;100.00;149167.28;5052485;28;20284;-54
2023/05/15 07:41:10;;;;;;;27.13;16.30;;;;;;;16.39;100.00;149192.53;5052433;28;20197;-55
2023/05/15 07:43:36;;;;;;;18.50;14.73;;;;;;;16.47;100.00;149212.75;5052567;28;20203;-52
2023/05/15 07:46:03;;;;;;;17.27;13.90;;;;;;;16.55;100.00;149232.97;5052483;28;20200;-54
2023/05/15 07:48:30;;;;;;;19.20;15.00;;;;;;;16.65;100.00;149258.28;5052401;28;20209;-54
2023/05/15 07:50:57;;;;;;;15.90;14.27;;;;;;;16.61;100.00;149248.09;5052360;28;20199;-53
2023/05/15 07:53:24;;;;;;;16.87;14.50;;;;;;;16.61;100.00;149248.09;5051123;28;20196;-54
2023/05/15 07:55:51;;;;;;;16.57;14.87;;;;;;;16.69;100.00;149268.38;5049201;28;20220;-55
2023/05/15 07:58:20;;;;;;;21.40;15.87;;;;;;;16.78;100.00;149289.84;5051822;28;20236;-53
2023/05/15 08:00:47;;;;;;;18.03;15.10;;;;;;;16.77;100.00;149287.31;5051812;28;20248;-53
2023/05/15 08:03:14;;;;;;;20.37;15.93;;;;;;;16.70;100.00;149270.88;5051313;28;20205;-54
2023/05/15 08:05:41;;;;;;;18.90;16.27;;;;;;;16.74;100.00;149278.47;5052148;28;20750;-54
2023/05/15 08:08:08;;;;;;;20.23;17.83;;;;;;;16.77;100.00;149286.06;5051466;28;20192;-54
2023/05/15 08:10:35;;;;;;;22.07;17.00;;;;;;;16.72;100.00;149274.69;5051863;28;20212;-55
2023/05/15 08:13:02;;;;;;;19.43;17.47;;;;;;;16.80;100.00;149294.91;5052008;28;20197;-55
2023/05/15 08:15:30;;;;;;;20.50;18.27;;;;;;;16.89;100.00;149317.66;5051891;28;20197;-53
2023/05/15 08:17:57;;;;;;;23.63;17.80;;;;;;;17.03;100.00;149351.78;5052052;28;20283;-54
2023/05/15 08:20:24;;;;;;;22.47;17.87;;;;;;;17.18;100.00;149389.66;5048087;28;20216;-53
2023/05/15 08:22:50;;;;;;;19.50;17.67;;;;;;;17.20;100.00;149394.72;5051905;28;20219;-53
2023/05/15 08:25:18;;;;;;;20.27;18.07;;;;;;;17.18;100.00;149389.66;5049330;28;20934;-54
2023/05/15 08:27:45;;;;;;;19.17;17.27;;;;;;;17.23;100.00;149401.03;5039303;28;20244;-55
2023/05/15 08:30:13;;;;;;;20.57;18.43;;;;;;;17.38;100.00;149440.19;5057401;28;20619;-55
2023/05/15 08:32:43;;;;;;;24.00;18.77;;;;;;;17.43;100.00;149452.84;5070056;28;20697;-54
2023/05/15 08:35:10;;;;;;;19.80;17.80;;;;;;;17.55;100.00;149481.94;5071293;28;20202;-53
2023/05/15 08:37:37;;;;;;;20.20;17.87;;;;;;;17.48;100.00;149464.25;5071591;28;20203;-53
2023/05/15 08:40:06;;;;;;;20.40;18.17;;;;;;;17.64;100.00;149503.44;5071424;28;20279;-54
2023/05/15 08:42:38;;;;;;;20.37;18.27;;;;;;;17.62;100.00;149498.34;5071476;28;20227;-54
2023/05/15 08:45:07;;;;;;;20.43;18.30;;;;;;;17.76;100.00;149533.78;5071487;28;20204;-54
2023/05/15 08:47:38;;;;;;;22.92;17.98;;;;;;;17.83;100.00;149550.25;5071340;28;20196;-55
2023/05/15 08:50:09;;;;;;;25.58;20.38;;;;;;;17.85;100.00;149555.28;5056713;28;20221;-55
2023/05/15 08:52:36;;;;;;;20.47;18.60;;;;;;;17.58;100.00;149488.25;5050560;28;20201;-55
2023/05/15 08:55:05;;;;;;;20.47;18.47;;;;;;;17.40;100.00;149445.25;5050953;28;20209;-59
2023/05/15 08:57:33;;;;;;;20.50;18.30;;;;;;;17.41;100.00;149447.78;5050015;28;20228;-54
2023/05/15 09:00:00;;;;;;;21.20;18.97;;;;;;;17.45;100.00;149455.38;5051090;28;20280;-55
2023/05/15 09:02:27;;;;;;;21.55;19.27;;;;;;;17.67;100.00;149511.06;5051011;28;20283;-55
2023/05/15 09:04:55;;;;;;;21.37;19.03;;;;;;;17.74;100.00;149530.00;5051104;28;20197;-54
2023/05/15 09:07:23;;;;;;;22.33;18.17;;;;;;;17.56;100.00;149483.19;5051049;28;20205;-54
2023/05/15 09:09:51;;;;;;;23.50;20.37;;;;;;;17.33;100.00;149426.31;5050730;28;20226;-53
2023/05/15 09:12:19;;;;;;;21.33;19.07;;;;;;;17.30;100.00;149418.72;5050143;28;20205;-54
2023/05/15 09:14:46;;;;;;;23.63;20.27;;;;;;;17.39;100.00;149441.47;5050354;28;20207;-55
2023/05/15 09:17:13;;;;;;;21.20;18.60;;;;;;;17.49;100.00;149465.50;5050880;28;20581;-54
2023/05/15 09:19:40;;;;;;;22.37;19.10;;;;;;;17.59;100.00;149490.78;5050069;28;20613;-54
2023/05/15 09:22:17;;;;;;;20.17;18.07;;;;;;;17.69;100.00;149516.13;5050680;28;20211;-54
2023/05/15 09:24:46;;;;;;;19.63;17.23;;;;;;;17.78;100.00;149538.88;5051037;28;20204;-54
2023/05/15 09:27:13;;;;;;;18.73;16.93;;;;;;;17.82;100.00;149547.72;5050530;28;20223;-53
2023/05/15 09:29:40;;;;;;;25.48;17.33;;;;;;;17.83;100.00;149551.53;5050860;28;20220;-54
2023/05/15 09:32:10;;;;;;;19.35;17.10;;;;;;;17.96;100.00;149584.38;5047028;28;20228;-54
2023/05/15 09:34:39;;;;;;;18.70;16.75;;;;;;;17.89;100.00;149566.69;5049672;28;20236;-54
2023/05/15 09:37:08;;;;;;;19.17;16.38;;;;;;;17.98;100.00;149588.16;5050112;28;20224;-54
2023/05/15 09:39:40;;;;;;;21.77;17.58;;;;;;;18.07;100.00;149612.19;5049159;28;20230;-53
2023/05/15 09:42:11;;;;;;;18.33;16.52;;;;;;;18.10;100.00;149618.50;5049884;28;20715;-53
2023/05/15 09:44:41;;;;;;;19.10;17.20;;;;;;;18.16;100.00;149633.72;5049877;28;20216;-54
2023/05/15 09:47:09;;;;;;;19.17;17.30;;;;;;;18.22;100.00;149647.59;5059612;28;20250;-54
2023/05/15 09:49:36;;;;;;;22.50;17.20;;;;;;;18.13;100.00;149627.38;5070063;28;20723;-54
2023/05/15 09:52:07;;;;;;;19.67;16.05;;;;;;;18.04;100.00;149604.63;5068417;28;20192;-54
2023/05/15 09:54:35;;;;;;;18.00;16.02;;;;;;;17.85;100.00;149555.28;5070488;28;20562;-54
2023/05/15 09:57:10;;;;;;;17.27;15.55;;;;;;;17.81;100.00;149545.19;5069755;28;20243;-54
2023/05/15 09:59:45;;;;;;;17.10;15.60;;;;;;;17.76;100.00;149533.78;5070533;28;20698;-53
2023/05/15 10:02:15;;;;;;;18.70;16.48;;;;;;;17.97;100.00;149586.88;5054555;28;20220;-53
2023/05/15 10:04:41;;;;;;;19.13;17.10;;;;;;;18.04;100.00;149604.63;5050244;28;20254;-54
2023/05/15 10:07:09;;;;;;;19.35;16.55;;;;;;;18.32;100.00;149672.88;5050044;28;20210;-54
2023/05/15 10:09:35;;;;;;;20.02;16.40;;;;;;;18.42;100.00;149698.19;5050214;28;20575;-53
2023/05/15 10:12:04;;;;;;;17.63;15.82;;;;;;;18.48;100.00;149713.38;5050108;28;20201;-52
2023/05/15 10:14:32;;;;;;;19.15;17.48;;;;;;;18.38;100.00;149688.09;5049931;28;20291;-55
2023/05/15 10:16:59;;;;;;;20.02;18.02;;;;;;;18.38;100.00;149688.09;5050155;28;20196;-55
2023/05/15 10:19:28;;;;;;;19.45;17.63;;;;;;;18.45;100.00;149705.78;5048995;28;20196;-55
2023/05/15 10:21:58;;;;;;;20.83;18.73;;;;;;;18.54;100.00;149728.53;5044081;28;20661;-54
2023/05/15 10:24:29;;;;;;;20.40;18.30;;;;;;;18.70;100.00;149769.09;5049415;28;20676;-54
2023/05/15 10:26:57;;;;;;;19.55;17.75;;;;;;;18.87;100.00;149810.81;5048307;28;20192;-51
2023/05/15 10:29:26;;;;;;;21.92;19.73;;;;;;;18.83;100.00;149802.00;5049658;28;20581;-52
2023/05/15 10:31:55;;;;;;;23.35;20.25;;;;;;;18.85;100.00;149807.00;5051834;28;20594;-52
2023/05/15 10:34:23;;;;;;;23.20;19.50;;;;;;;19.12;100.00;149872.81;5053759;28;20202;-52
2023/05/15 10:36:51;;;;;;;24.75;20.15;;;;;;;19.25;100.00;149905.72;5053795;28;20201;-53
2023/05/15 10:39:19;;;;;;;23.88;20.83;;;;;;;19.20;100.00;149893.06;5053830;28;20193;-53
2023/05/15 10:41:46;;;;;;;30.85;23.38;;;;;;;19.10;100.00;149869.03;5053787;28;20688;-53
2023/05/15 10:44:14;;;;;;;29.27;23.85;;;;;;;18.89;100.00;149814.63;5053126;28;20725;-53
2023/05/15 10:46:41;;;;;;;27.48;23.65;;;;;;;18.86;100.00;149809.53;5050412;28;20197;-54
2023/05/15 10:49:10;;;;;;;26.52;22.67;;;;;;;18.98;100.00;149837.38;5053216;28;20680;-54
2023/05/15 10:51:39;;;;;;;29.55;23.17;;;;;;;19.18;100.00;149888.03;5053249;28;20220;-53
2023/05/15 10:54:06;;;;;;;26.98;23.20;;;;;;;19.50;100.00;149969.06;5057874;28;20249;-53
2023/05/15 10:56:34;;;;;;;26.75;23.05;;;;;;;19.38;100.00;149937.38;5064250;28;20291;-54
2023/05/15 10:59:06;;;;;;;29.75;24.02;;;;;;;19.69;100.00;150014.63;5073146;28;20231;-52
2023/05/15 11:01:34;;;;;;;29.30;24.58;;;;;;;19.67;100.00;150010.81;5073674;28;20196;-54
2023/05/15 11:04:14;;;;;;;28.80;24.13;;;;;;;19.65;100.00;150004.47;5073639;28;20199;-54
2023/05/15 11:06:42;;;;;;;27.75;24.80;;;;;;;19.51;100.00;149971.63;5073445;28;20767;-54